Terminal Aerodrome Forecast
Issued by NWS

Home | Current Version | Previous Version | Graphics & Text | Print | Product List | Glossary On
Versions: 1 2 3 4 5 6 7 8 9 10 11 12 13 14 15 16 17 18 19 20 21 22 23 24 25 26 27 28 29 30 31 32
327
FTUS43 KBIS 222337
TAFDIK
TAF
KDIK 222337Z 2300/2324 09016G22KT P6SM VCSH BKN035 OVC045
      TEMPO 2300/2304 -SHRA BKN030
     FM230400 09017G24KT P6SM VCSH OVC050
     FM230600 10015G21KT P6SM VCSH SCT011 OVC025
     FM231000 09016G22KT P6SM VCSH OVC008
     FM231300 09014G20KT 3SM -SHRA BR SCT001 OVC005
     FM232100 09013KT P6SM VCSH OVC003=

USA.gov is the U.S. government's official web portal to all federal, state and local government web resources and services.